METAR Data
IDs: Format: Raw Decoded Include TAF

Data at: 1343 UTC 21 Apr 2021

METAR for:KGGI (Grinnell Rgnl, IA, US)
Text:KGGI 211335Z AUTO 28004KT 10SM SCT050 02/M05 A3019 RMK AO2 T00181051
Temperature: 1.8°C ( 35°F)
Dewpoint: -5.1°C ( 23°F) [RH = 60%]
Pressure (altimeter):30.19 inches Hg (1022.4 mb)
Winds:from the W (280 degrees) at 5 MPH (4 knots; 2.1 m/s)
Visibility:10 or more sm (16+ km)
Ceiling:at least 12,000 feet AGL
Clouds: scattered clouds at 5000 feet AGL
QC Flag:automated observation with no human augmentation